CGZMA CYHM-CYKF
Flight info
| Callsign | CGZMA |
|---|---|
| Flight time | 0h 19m |
| Altitude | 6000 |
| Route | DCT |
| Aircraft | C152/L-SFG/C |
Departure
| Time | 2026-04-26 15:51 |
|---|---|
| Airport | John C. Munro Hamilton International Airport (CYHM) |
Arrival
| Time | 2026-04-26 16:10 |
|---|---|
| Airport | Region of Waterloo International Airport (CYKF) |
| Time | Latitude | Longitude | Altitude | Speed | Heading |
|---|---|---|---|---|---|
| 2026-04-26 15:39 | 43.16422 | -79.93423 | 771 ft | 0 kts | 18° |
| 2026-04-26 15:46 | 43.16426 | -79.93396 | 771 ft | 4 kts | 144° |
| 2026-04-26 15:46 | 43.16398 | -79.93412 | 771 ft | 0 kts | 267° |
| 2026-04-26 15:46 | 43.16398 | -79.93414 | 771 ft | 3 kts | 264° |
| 2026-04-26 15:46 | 43.16386 | -79.93462 | 770 ft | 10 kts | 252° |
| 2026-04-26 15:47 | 43.16379 | -79.93498 | 769 ft | 0 kts | 273° |
| 2026-04-26 15:47 | 43.16454 | -79.93476 | 771 ft | 8 kts | 47° |
| 2026-04-26 15:47 | 43.16496 | -79.93410 | 772 ft | 12 kts | 47° |
| 2026-04-26 15:48 | 43.16556 | -79.93316 | 774 ft | 11 kts | 37° |
| 2026-04-26 15:48 | 43.16602 | -79.93347 | 775 ft | 9 kts | 312° |
| 2026-04-26 15:48 | 43.16635 | -79.93397 | 775 ft | 6 kts | 312° |
| 2026-04-26 15:48 | 43.16680 | -79.93442 | 776 ft | 8 kts | 355° |
| 2026-04-26 15:49 | 43.16741 | -79.93371 | 776 ft | 26 kts | 50° |
| 2026-04-26 15:49 | 43.16936 | -79.93062 | 777 ft | 55 kts | 48° |
| 2026-04-26 15:49 | 43.17193 | -79.92674 | 882 ft | 52 kts | 49° |
| 2026-04-26 15:49 | 43.17442 | -79.92297 | 967 ft | 54 kts | 44° |
| 2026-04-26 15:50 | 43.17789 | -79.92126 | 1054 ft | 57 kts | 12° |
| 2026-04-26 15:50 | 43.18207 | -79.92099 | 1049 ft | 67 kts | 13° |
| 2026-04-26 15:50 | 43.18675 | -79.92091 | 1083 ft | 67 kts | 12° |
| 2026-04-26 15:50 | 43.19114 | -79.92047 | 1191 ft | 64 kts | 16° |
| 2026-04-26 15:51 | 43.19516 | -79.91871 | 1315 ft | 60 kts | 31° |
| 2026-04-26 15:51 | 43.19945 | -79.91889 | 1451 ft | 74 kts | 338° |
| 2026-04-26 15:51 | 43.20349 | -79.92349 | 1597 ft | 72 kts | 331° |
| 2026-04-26 15:51 | 43.20771 | -79.92750 | 1669 ft | 76 kts | 339° |
| 2026-04-26 15:52 | 43.21145 | -79.93267 | 1784 ft | 82 kts | 315° |
| 2026-04-26 15:52 | 43.21428 | -79.93934 | 1936 ft | 82 kts | 300° |
| 2026-04-26 15:52 | 43.21654 | -79.94666 | 2039 ft | 85 kts | 300° |
| 2026-04-26 15:52 | 43.21766 | -79.95189 | 2104 ft | 86 kts | 294° |
| 2026-04-26 15:53 | 43.22017 | -79.96217 | 2246 ft | 84 kts | 296° |
| 2026-04-26 15:53 | 43.22223 | -79.96956 | 2328 ft | 82 kts | 301° |
| 2026-04-26 15:53 | 43.22450 | -79.97695 | 2394 ft | 85 kts | 302° |
| 2026-04-26 15:53 | 43.22703 | -79.98417 | 2487 ft | 84 kts | 307° |
| 2026-04-26 15:54 | 43.22989 | -79.99137 | 2541 ft | 90 kts | 307° |
| 2026-04-26 15:54 | 43.23295 | -79.99922 | 2529 ft | 95 kts | 306° |
| 2026-04-26 15:54 | 43.23612 | -80.00712 | 2568 ft | 95 kts | 306° |
| 2026-04-26 15:54 | 43.23906 | -80.01552 | 2562 ft | 100 kts | 298° |
| 2026-04-26 15:55 | 43.24159 | -80.02455 | 2541 ft | 102 kts | 297° |
| 2026-04-26 15:55 | 43.24438 | -80.03331 | 2568 ft | 98 kts | 301° |
| 2026-04-26 15:55 | 43.24715 | -80.04193 | 2531 ft | 100 kts | 299° |
| 2026-04-26 15:55 | 43.24980 | -80.05064 | 2515 ft | 98 kts | 300° |
| 2026-04-26 15:56 | 43.25163 | -80.05630 | 2503 ft | 98 kts | 301° |
| 2026-04-26 15:56 | 43.25418 | -80.06498 | 2486 ft | 99 kts | 297° |
| 2026-04-26 15:56 | 43.25638 | -80.07383 | 2468 ft | 98 kts | 294° |
| 2026-04-26 15:56 | 43.25838 | -80.08262 | 2468 ft | 95 kts | 293° |
| 2026-04-26 15:57 | 43.26045 | -80.09086 | 2530 ft | 86 kts | 295° |
| 2026-04-26 15:57 | 43.26212 | -80.09890 | 2529 ft | 89 kts | 293° |
| 2026-04-26 15:57 | 43.26384 | -80.10715 | 2543 ft | 92 kts | 296° |
| 2026-04-26 15:57 | 43.26525 | -80.11255 | 2573 ft | 90 kts | 302° |
| 2026-04-26 15:58 | 43.26841 | -80.12327 | 2593 ft | 93 kts | 298° |
| 2026-04-26 15:58 | 43.27087 | -80.13157 | 2582 ft | 95 kts | 303° |
| 2026-04-26 15:58 | 43.27377 | -80.13976 | 2553 ft | 96 kts | 305° |
| 2026-04-26 15:58 | 43.27682 | -80.14786 | 2548 ft | 96 kts | 304° |
| 2026-04-26 15:59 | 43.27977 | -80.15612 | 2530 ft | 97 kts | 302° |
| 2026-04-26 15:59 | 43.28229 | -80.16463 | 2527 ft | 96 kts | 297° |
| 2026-04-26 15:59 | 43.28461 | -80.17330 | 2487 ft | 98 kts | 300° |
| 2026-04-26 15:59 | 43.28736 | -80.18163 | 2482 ft | 96 kts | 301° |
| 2026-04-26 16:00 | 43.28985 | -80.19004 | 2476 ft | 93 kts | 295° |
| 2026-04-26 16:00 | 43.29201 | -80.19840 | 2455 ft | 93 kts | 298° |
| 2026-04-26 16:00 | 43.29493 | -80.20615 | 2442 ft | 90 kts | 310° |
| 2026-04-26 16:00 | 43.29796 | -80.21334 | 2491 ft | 85 kts | 306° |
| 2026-04-26 16:01 | 43.30056 | -80.22061 | 2500 ft | 86 kts | 306° |
| 2026-04-26 16:01 | 43.30354 | -80.22772 | 2520 ft | 86 kts | 308° |
| 2026-04-26 16:01 | 43.30671 | -80.23470 | 2525 ft | 86 kts | 313° |
| 2026-04-26 16:01 | 43.30988 | -80.24175 | 2527 ft | 87 kts | 310° |
| 2026-04-26 16:02 | 43.31329 | -80.24863 | 2531 ft | 88 kts | 313° |
| 2026-04-26 16:02 | 43.31710 | -80.25535 | 2529 ft | 89 kts | 320° |
| 2026-04-26 16:02 | 43.32128 | -80.26168 | 2561 ft | 89 kts | 323° |
| 2026-04-26 16:02 | 43.32426 | -80.26586 | 2546 ft | 90 kts | 325° |
| 2026-04-26 16:03 | 43.33045 | -80.27341 | 2521 ft | 90 kts | 329° |
| 2026-04-26 16:03 | 43.33511 | -80.27920 | 2532 ft | 90 kts | 326° |
| 2026-04-26 16:03 | 43.34007 | -80.28447 | 2521 ft | 90 kts | 332° |
| 2026-04-26 16:03 | 43.34514 | -80.28940 | 2508 ft | 89 kts | 331° |
| 2026-04-26 16:04 | 43.35006 | -80.29482 | 2485 ft | 92 kts | 328° |
| 2026-04-26 16:04 | 43.35480 | -80.30049 | 2477 ft | 89 kts | 329° |
| 2026-04-26 16:04 | 43.35911 | -80.30670 | 2451 ft | 92 kts | 315° |
| 2026-04-26 16:04 | 43.36289 | -80.31368 | 2447 ft | 91 kts | 314° |
| 2026-04-26 16:05 | 43.36686 | -80.32027 | 2468 ft | 89 kts | 321° |
| 2026-04-26 16:05 | 43.37110 | -80.32644 | 2502 ft | 90 kts | 323° |
| 2026-04-26 16:05 | 43.37574 | -80.33199 | 2489 ft | 88 kts | 332° |
| 2026-04-26 16:05 | 43.38041 | -80.33744 | 2442 ft | 90 kts | 322° |
| 2026-04-26 16:06 | 43.38451 | -80.34351 | 2429 ft | 83 kts | 321° |
| 2026-04-26 16:06 | 43.38832 | -80.34920 | 2464 ft | 79 kts | 321° |
| 2026-04-26 16:06 | 43.39121 | -80.35557 | 2498 ft | 80 kts | 307° |
| 2026-04-26 16:06 | 43.39382 | -80.36259 | 2473 ft | 84 kts | 308° |
| 2026-04-26 16:07 | 43.39755 | -80.36826 | 2455 ft | 79 kts | 334° |
| 2026-04-26 16:07 | 43.40200 | -80.37236 | 2514 ft | 78 kts | 337° |
| 2026-04-26 16:07 | 43.40657 | -80.37686 | 2526 ft | 83 kts | 333° |
| 2026-04-26 16:07 | 43.41123 | -80.38110 | 2488 ft | 77 kts | 340° |
| 2026-04-26 16:08 | 43.41606 | -80.38431 | 2391 ft | 76 kts | 347° |
| 2026-04-26 16:08 | 43.42084 | -80.38681 | 2260 ft | 72 kts | 352° |
| 2026-04-26 16:08 | 43.42585 | -80.38860 | 2105 ft | 74 kts | 1° |
| 2026-04-26 16:08 | 43.43079 | -80.38999 | 2012 ft | 74 kts | 352° |
| 2026-04-26 16:09 | 43.43568 | -80.39178 | 1872 ft | 72 kts | 1° |
| 2026-04-26 16:09 | 43.44078 | -80.39203 | 1730 ft | 73 kts | 2° |
| 2026-04-26 16:09 | 43.44560 | -80.39330 | 1578 ft | 68 kts | 353° |
| 2026-04-26 16:09 | 43.44999 | -80.39424 | 1441 ft | 58 kts | 358° |
| 2026-04-26 16:10 | 43.45349 | -80.39508 | 1312 ft | 50 kts | 17° |
| 2026-04-26 16:10 | 43.45630 | -80.39260 | 1188 ft | 50 kts | 47° |
| 2026-04-26 16:10 | 43.45830 | -80.38857 | 1078 ft | 52 kts | 60° |
| 2026-04-26 16:10 | 43.45982 | -80.38420 | 1035 ft | 48 kts | 61° |
| 2026-04-26 16:11 | 43.46094 | -80.38093 | 1029 ft | 27 kts | 66° |
| 2026-04-26 16:11 | 43.46157 | -80.37914 | 1031 ft | 18 kts | 63° |
| 2026-04-26 16:11 | 43.46204 | -80.37775 | 1030 ft | 14 kts | 65° |
| 2026-04-26 16:11 | 43.46170 | -80.37693 | 1030 ft | 11 kts | 156° |
| 2026-04-26 16:12 | 43.46102 | -80.37702 | 1030 ft | 10 kts | 199° |
| 2026-04-26 16:12 | 43.46042 | -80.37750 | 1030 ft | 11 kts | 249° |
| 2026-04-26 16:12 | 43.45983 | -80.37930 | 1030 ft | 11 kts | 244° |